LYTV

Tivat Airport

Tivat, Montenegro
TAF LYTV 210500Z 2106/2206 21005KT CAVOK TX35/2113Z TN20/2203Z PROB30 TEMPO 2112/2116 TS FEW030CB
Issued Valid From Valid To
Aug-21 @ 05:00 UTC
(13 hours ago)
Aug-21 @ 06:00 UTC
(12 hours ago)
Aug-22 @ 06:00 UTC
(in 12 hours)
Aug-21 @ 06:00 to Aug-22 @ 06:00
TAF LYTV 210500Z 2106/2206 21005KT CAVOK TX35/2113Z TN20/2203Z
Wind Visibility Clouds
210° at 5 knots 10,000+ meters
  • No significant clouds
Expired Click to View Aug-21 @ 12:00 to Aug-21 @ 16:00
PROB30 TEMPO 2112/2116 TS FEW030CB
Clouds Conditions
  • Few at 3,000' AGL
  • Thunderstorm
TAF LYTV 210500Z 2106/2206 21005KT CAVOK TX35/2113Z TN20/2203Z PROB30 TEMPO 2112/2116 TS FEW030CB
Issued Aug-21 @ 05:00 UTC
(13 hours ago)
Valid From Aug-21 @ 06:00 UTC
(12 hours ago)
Valid To Aug-22 @ 06:00 UTC
(in 12 hours)
Aug-21 @ 06:00 - Aug-22 @ 06:00
Wind Visibility
210° at 5 knots 10,000+ meters
Clouds
  • No significant clouds
Aug-21 @ 12:00 - Aug-21 @ 16:00
Clouds
  • Few at 3,000' AGL
Conditions
  • Thunderstorm